createdAt,value
2022-07-29T00:03:33.138Z,22.55
2022-07-29T00:08:33.029Z,22.56
2022-07-29T00:13:33.092Z,22.53
2022-07-29T00:18:33.077Z,22.52
2022-07-29T00:23:36.668Z,22.51
2022-07-29T00:28:32.752Z,22.52
2022-07-29T00:33:32.697Z,22.51
2022-07-29T00:38:32.634Z,22.43
2022-07-29T00:43:32.579Z,22.46
2022-07-29T00:48:32.524Z,22.51
2022-07-29T00:53:32.440Z,22.44
2022-07-29T00:58:32.379Z,22.43
2022-07-29T01:03:32.333Z,22.41
2022-07-29T01:08:32.262Z,22.34
2022-07-29T01:13:32.198Z,22.30
2022-07-29T01:18:32.149Z,22.31
2022-07-29T01:23:32.075Z,22.30
2022-07-29T01:28:32.019Z,22.23
2022-07-29T01:33:32.109Z,22.16
2022-07-29T01:38:31.926Z,22.15
2022-07-29T01:43:31.931Z,22.16
2022-07-29T01:48:31.825Z,22.12
2022-07-29T01:53:37.886Z,22.11
2022-07-29T01:58:32.668Z,22.06
2022-07-29T02:03:31.592Z,21.96
2022-07-29T02:08:31.634Z,21.98
2022-07-29T02:13:31.576Z,21.90
2022-07-29T02:18:31.429Z,21.85
2022-07-29T02:23:31.365Z,21.80
2022-07-29T02:28:32.274Z,21.74
2022-07-29T02:33:31.217Z,21.69
2022-07-29T02:38:31.157Z,21.63
2022-07-29T02:43:31.094Z,21.58
2022-07-29T02:48:31.014Z,21.51
2022-07-29T02:53:30.955Z,21.50
2022-07-29T02:58:30.893Z,21.44
2022-07-29T03:03:30.822Z,21.43
2022-07-29T03:08:30.785Z,21.37
2022-07-29T03:13:30.709Z,21.35
2022-07-29T03:18:30.626Z,21.32
2022-07-29T03:23:33.242Z,21.25
2022-07-29T03:28:31.526Z,21.25
2022-07-29T03:33:30.438Z,21.30
2022-07-29T03:38:30.388Z,21.26
2022-07-29T03:43:30.328Z,21.23
2022-07-29T03:48:30.395Z,21.22
2022-07-29T03:53:30.239Z,21.19
2022-07-29T03:58:30.133Z,21.19
2022-07-29T04:03:30.141Z,21.20
2022-07-29T04:08:30.000Z,21.14
2022-07-29T04:13:29.938Z,21.22
2022-07-29T04:18:29.872Z,21.18
2022-07-29T04:23:29.808Z,21.20
2022-07-29T04:28:29.753Z,21.23
2022-07-29T04:33:29.681Z,21.14
2022-07-29T04:38:29.630Z,21.13
2022-07-29T04:43:29.553Z,21.25
2022-07-29T04:48:30.561Z,21.23
2022-07-29T04:53:29.477Z,21.30
2022-07-29T04:58:29.391Z,21.38
2022-07-29T05:03:29.360Z,21.40
2022-07-29T05:08:29.270Z,21.43
2022-07-29T05:13:29.199Z,21.43
2022-07-29T05:18:30.114Z,21.34
2022-07-29T05:23:29.086Z,21.38
2022-07-29T05:28:28.991Z,21.40
2022-07-29T05:33:34.943Z,21.37
2022-07-29T05:38:29.870Z,21.44
2022-07-29T05:43:28.815Z,21.43
2022-07-29T05:48:28.748Z,21.40
2022-07-29T05:53:28.679Z,21.43
2022-07-29T05:58:28.615Z,21.43
2022-07-29T06:03:28.566Z,21.43
2022-07-29T06:08:28.526Z,21.41
2022-07-29T06:13:28.437Z,21.37
2022-07-29T06:18:28.520Z,21.40
2022-07-29T06:23:28.335Z,21.37
2022-07-29T06:28:28.243Z,21.41
2022-07-29T06:33:28.178Z,21.45
2022-07-29T06:38:33.872Z,21.51
2022-07-29T06:43:29.055Z,21.55
2022-07-29T06:48:28.018Z,21.66
2022-07-29T06:53:27.945Z,21.77
2022-07-29T06:58:27.864Z,21.88
2022-07-29T07:03:27.826Z,21.98
2022-07-29T07:08:27.745Z,22.16
2022-07-29T07:13:27.699Z,22.38
2022-07-29T07:18:27.614Z,22.51
2022-07-29T07:23:27.566Z,22.62
2022-07-29T07:28:27.472Z,22.85
2022-07-29T07:33:27.442Z,23.08
2022-07-29T07:38:27.354Z,23.37
2022-07-29T07:43:27.330Z,23.89
2022-07-29T07:48:27.234Z,24.07
2022-07-29T07:53:27.210Z,24.31
2022-07-29T07:58:27.096Z,24.47
2022-07-29T08:03:27.030Z,24.66
2022-07-29T08:08:26.961Z,24.91
2022-07-29T08:13:26.946Z,25.08
2022-07-29T08:18:26.833Z,25.74
2022-07-29T08:23:27.797Z,26.04
2022-07-29T08:28:26.739Z,26.15
2022-07-29T08:33:26.665Z,26.03
2022-07-29T08:38:26.589Z,25.81
2022-07-29T08:43:26.604Z,25.55
2022-07-29T08:48:26.458Z,25.31
2022-07-29T08:53:26.448Z,25.16
2022-07-29T08:58:26.350Z,25.89
2022-07-29T09:03:26.383Z,26.76
2022-07-29T09:08:26.243Z,27.94
2022-07-29T09:13:26.179Z,28.93
2022-07-29T09:18:30.956Z,28.87
2022-07-29T09:23:27.074Z,28.46
2022-07-29T09:28:25.979Z,29.03
2022-07-29T09:33:25.987Z,30.26
2022-07-29T09:38:25.842Z,31.45
2022-07-29T09:43:25.811Z,32.09
2022-07-29T09:48:25.738Z,32.57
2022-07-29T09:53:25.691Z,32.50
2022-07-29T09:58:25.617Z,32.54
2022-07-29T10:03:25.659Z,32.77
2022-07-29T10:08:25.499Z,32.87
2022-07-29T10:13:25.454Z,33.13
2022-07-29T10:18:25.383Z,33.51
2022-07-29T10:23:25.376Z,33.67
2022-07-29T10:28:25.255Z,33.86
2022-07-29T10:33:25.359Z,34.22
2022-07-29T10:38:25.146Z,34.50
2022-07-29T10:43:25.155Z,34.48
2022-07-29T10:48:25.032Z,34.79
2022-07-29T10:53:25.041Z,34.99
2022-07-29T10:58:24.913Z,35.01
2022-07-29T11:03:24.887Z,35.19
2022-07-29T11:08:26.133Z,35.41
2022-07-29T11:13:24.763Z,35.79
2022-07-29T11:18:24.672Z,35.98
2022-07-29T11:23:24.641Z,36.15
2022-07-29T11:28:25.472Z,36.11
2022-07-29T11:33:54.542Z,36.14
2022-07-29T11:38:27.883Z,36.20
2022-07-29T11:43:24.462Z,36.17
2022-07-29T11:48:29.387Z,35.90
2022-07-29T11:53:25.281Z,35.24
2022-07-29T11:58:24.806Z,34.59
2022-07-29T12:03:33.337Z,34.60
2022-07-29T12:08:25.126Z,35.09
2022-07-29T12:13:37.547Z,34.94
2022-07-29T12:18:25.028Z,34.42
2022-07-29T12:23:23.921Z,33.98
2022-07-29T12:28:26.538Z,33.62
2022-07-29T12:33:23.810Z,33.36
2022-07-29T12:38:23.768Z,33.17
2022-07-29T12:43:23.677Z,32.94
2022-07-29T12:48:23.656Z,32.79
2022-07-29T12:53:23.597Z,32.63
2022-07-29T12:58:23.539Z,32.39
2022-07-29T13:03:23.561Z,32.16
2022-07-29T13:08:23.430Z,32.01
2022-07-29T13:13:23.313Z,31.91
2022-07-29T13:18:23.309Z,31.68
2022-07-29T13:23:23.214Z,31.39
2022-07-29T13:28:23.176Z,31.17
2022-07-29T13:33:23.080Z,30.96
2022-07-29T13:38:23.061Z,30.77
2022-07-29T13:43:24.004Z,30.52
2022-07-29T13:48:22.906Z,30.37
2022-07-29T13:53:26.855Z,30.17
2022-07-29T13:58:22.843Z,30.00
2022-07-29T14:03:22.744Z,29.87
2022-07-29T14:08:22.751Z,29.68
2022-07-29T14:13:25.010Z,29.54
2022-07-29T14:18:22.853Z,29.40
2022-07-29T14:23:22.494Z,29.36
2022-07-29T14:28:22.407Z,29.36
2022-07-29T14:33:22.381Z,29.34
2022-07-29T14:38:22.286Z,29.31
2022-07-29T14:43:22.318Z,29.18
2022-07-29T14:48:22.191Z,29.15
2022-07-29T14:53:22.163Z,29.04
2022-07-29T14:58:22.052Z,28.93
2022-07-29T15:03:24.112Z,28.83
2022-07-29T15:08:21.914Z,29.02
2022-07-29T15:13:21.889Z,29.28
2022-07-29T15:18:25.724Z,29.39
2022-07-29T15:23:21.765Z,29.44
2022-07-29T15:28:21.669Z,29.52
2022-07-29T15:33:21.643Z,29.40
2022-07-29T15:38:28.881Z,29.31
2022-07-29T15:43:22.559Z,29.10
2022-07-29T15:48:21.445Z,28.96
2022-07-29T15:53:21.403Z,28.84
2022-07-29T15:58:21.307Z,28.71
2022-07-29T16:03:21.292Z,28.49
2022-07-29T16:08:21.189Z,28.34
2022-07-29T16:13:21.151Z,28.06
2022-07-29T16:18:21.062Z,27.75
2022-07-29T16:23:22.102Z,27.53
2022-07-29T16:28:20.937Z,27.37
2022-07-29T16:33:20.891Z,27.20
2022-07-29T16:38:20.817Z,27.05
2022-07-29T16:43:20.870Z,26.90
2022-07-29T16:48:20.681Z,26.79
2022-07-29T16:53:20.661Z,26.76
2022-07-29T16:58:20.565Z,26.68
2022-07-29T17:03:20.558Z,26.61
2022-07-29T17:08:20.446Z,26.58
2022-07-29T17:13:20.406Z,26.52
2022-07-29T17:18:20.322Z,26.39
2022-07-29T17:23:20.374Z,26.24
2022-07-29T17:28:20.368Z,26.05
2022-07-29T17:33:20.180Z,25.92
2022-07-29T17:38:20.078Z,25.61
2022-07-29T17:43:20.188Z,25.31
2022-07-29T17:48:19.955Z,25.03
2022-07-29T17:53:19.930Z,24.85
2022-07-29T17:58:19.827Z,24.65
2022-07-29T18:03:19.846Z,24.51
2022-07-29T18:08:19.701Z,24.38
2022-07-29T18:13:19.663Z,24.21
2022-07-29T18:18:19.611Z,24.04
2022-07-29T18:23:19.553Z,23.85
2022-07-29T18:28:19.463Z,23.69
2022-07-29T18:33:21.279Z,23.52
2022-07-29T18:38:19.415Z,23.44
2022-07-29T18:43:19.340Z,23.28
2022-07-29T18:48:19.197Z,23.15
2022-07-29T18:53:19.147Z,23.03
2022-07-29T18:58:19.074Z,22.89
2022-07-29T19:03:19.039Z,22.80
2022-07-29T19:08:18.940Z,22.76
2022-07-29T19:13:18.880Z,22.64
2022-07-29T19:18:18.823Z,22.61
2022-07-29T19:23:22.854Z,22.51
2022-07-29T19:28:18.712Z,22.46
2022-07-29T19:33:18.670Z,22.40
2022-07-29T19:38:18.594Z,22.34
2022-07-29T19:43:50.631Z,22.36
2022-07-29T19:48:19.456Z,22.30
2022-07-29T19:53:18.388Z,22.18
2022-07-29T19:58:18.348Z,22.11
2022-07-29T20:03:18.295Z,22.04
2022-07-29T20:08:18.221Z,21.90
2022-07-29T20:13:18.192Z,21.88
2022-07-29T20:18:18.102Z,21.82
2022-07-29T20:23:18.020Z,21.82
2022-07-29T20:28:17.958Z,21.84
2022-07-29T20:33:17.922Z,21.81
2022-07-29T20:38:18.428Z,21.77
2022-07-29T20:43:18.094Z,21.75
2022-07-29T20:48:17.710Z,21.67
2022-07-29T20:53:17.642Z,21.65
2022-07-29T20:58:17.574Z,21.59
2022-07-29T21:03:17.508Z,21.60
2022-07-29T21:08:17.443Z,21.48
2022-07-29T21:13:17.540Z,21.44
2022-07-29T21:18:17.338Z,21.44
2022-07-29T21:23:17.255Z,21.34
2022-07-29T21:28:17.265Z,21.34
2022-07-29T21:33:17.213Z,21.26
2022-07-29T21:38:17.049Z,21.26
2022-07-29T21:43:16.994Z,21.20
2022-07-29T21:48:16.927Z,21.18
2022-07-29T21:53:16.857Z,21.11
2022-07-29T21:58:16.819Z,21.05
2022-07-29T22:03:16.774Z,21.03
2022-07-29T22:08:16.682Z,21.01
2022-07-29T22:13:16.618Z,20.95
2022-07-29T22:18:20.498Z,20.88
2022-07-29T22:23:16.499Z,20.85
2022-07-29T22:28:16.431Z,20.80
2022-07-29T22:33:17.463Z,20.79
2022-07-29T22:38:16.301Z,20.75
2022-07-29T22:43:16.257Z,20.71
2022-07-29T22:48:16.198Z,20.64
2022-07-29T22:53:16.139Z,20.65
2022-07-29T22:58:16.063Z,20.64
2022-07-29T23:03:16.047Z,20.58
2022-07-29T23:08:15.935Z,20.56
2022-07-29T23:13:15.878Z,20.50
2022-07-29T23:18:15.824Z,20.49
2022-07-29T23:23:15.759Z,20.49
2022-07-29T23:28:15.658Z,20.41
2022-07-29T23:33:15.631Z,20.42
2022-07-29T23:38:15.584Z,20.39
2022-07-29T23:43:15.509Z,20.33
2022-07-29T23:48:15.433Z,20.30
2022-07-29T23:53:15.395Z,20.29
2022-07-29T23:58:15.334Z,20.29
